createdAt,value
2022-12-08T00:02:18.429Z,2.54
2022-12-08T00:05:42.246Z,2.62
2022-12-08T00:09:03.343Z,2.89
2022-12-08T00:12:15.395Z,2.99
2022-12-08T00:15:17.733Z,2.85
2022-12-08T00:18:19.901Z,2.77
2022-12-08T00:21:22.151Z,2.88
2022-12-08T00:24:25.922Z,2.80
2022-12-08T00:27:28.148Z,2.85
2022-12-08T00:30:30.460Z,2.64
2022-12-08T00:33:32.723Z,2.58
2022-12-08T00:36:35.059Z,2.89
2022-12-08T00:39:37.323Z,3.08
2022-12-08T00:42:39.541Z,3.12
2022-12-08T00:45:42.940Z,3.19
2022-12-08T00:48:45.214Z,3.19
2022-12-08T00:51:47.665Z,3.20
2022-12-08T00:54:49.825Z,3.08
2022-12-08T00:57:52.080Z,2.81
2022-12-08T01:00:54.316Z,2.68
2022-12-08T01:03:56.827Z,2.64
2022-12-08T01:06:59.045Z,2.96
2022-12-08T01:10:01.368Z,2.99
2022-12-08T01:13:04.245Z,3.02
2022-12-08T01:16:07.238Z,3.12
2022-12-08T01:19:12.363Z,3.11
2022-12-08T01:22:14.882Z,3.04
2022-12-08T01:25:17.169Z,2.98
2022-12-08T01:28:19.448Z,2.82
2022-12-08T01:31:22.947Z,2.71
2022-12-08T01:34:25.336Z,2.84
2022-12-08T01:37:27.626Z,2.81
2022-12-08T01:40:29.912Z,2.74
2022-12-08T01:43:56.704Z,2.71
2022-12-08T01:46:59.192Z,2.53
2022-12-08T01:50:02.846Z,2.58
2022-12-08T01:53:21.693Z,2.77
2022-12-08T01:56:41.520Z,2.95
2022-12-08T01:59:52.139Z,2.89
2022-12-08T02:03:09.064Z,3.11
2022-12-08T02:06:12.108Z,3.15
2022-12-08T02:09:14.858Z,2.96
2022-12-08T02:12:17.128Z,3.04
2022-12-08T02:15:21.984Z,2.96
2022-12-08T02:18:53.728Z,3.13
2022-12-08T02:22:19.158Z,3.26
2022-12-08T02:25:29.444Z,3.02
2022-12-08T02:28:59.276Z,2.92
2022-12-08T02:32:22.730Z,2.98
2022-12-08T02:35:47.920Z,2.99
2022-12-08T02:39:10.361Z,3.06
2022-12-08T02:42:17.523Z,3.04
2022-12-08T02:45:36.254Z,2.85
2022-12-08T02:48:39.196Z,2.94
2022-12-08T02:51:48.107Z,2.70
2022-12-08T02:55:04.783Z,2.84
2022-12-08T02:58:13.139Z,2.91
2022-12-08T03:01:37.467Z,2.91
2022-12-08T03:04:48.870Z,2.82
2022-12-08T03:08:02.480Z,2.92
2022-12-08T03:11:34.775Z,3.02
2022-12-08T03:14:40.850Z,2.95
2022-12-08T03:17:48.258Z,2.88
2022-12-08T03:20:51.872Z,2.91
2022-12-08T03:23:56.824Z,2.96
2022-12-08T03:27:03.557Z,2.98
2022-12-08T03:30:06.929Z,2.99
2022-12-08T03:33:19.304Z,2.81
2022-12-08T03:36:22.508Z,2.89
2022-12-08T03:39:24.736Z,2.92
2022-12-08T03:42:27.035Z,2.94
2022-12-08T03:45:29.578Z,2.98
2022-12-08T03:48:31.872Z,2.92
2022-12-08T03:51:34.042Z,3.01
2022-12-08T03:54:36.286Z,2.94
2022-12-08T03:57:38.643Z,3.05
2022-12-08T04:00:41.373Z,3.16
2022-12-08T04:03:43.786Z,3.06
2022-12-08T04:06:46.254Z,3.23
2022-12-08T04:09:48.448Z,3.19
2022-12-08T04:12:50.801Z,3.15
2022-12-08T04:15:53.100Z,3.23
2022-12-08T04:18:55.456Z,3.26
2022-12-08T04:21:57.780Z,3.42
2022-12-08T04:25:00.044Z,3.47
2022-12-08T04:28:02.580Z,3.49
2022-12-08T04:31:05.762Z,3.49
2022-12-08T04:34:07.998Z,3.49
2022-12-08T04:37:10.280Z,3.54
2022-12-08T04:40:13.376Z,3.54
2022-12-08T04:43:15.687Z,3.47
2022-12-08T04:46:17.949Z,3.46
2022-12-08T04:49:21.904Z,3.46
2022-12-08T04:52:24.106Z,3.47
2022-12-08T04:55:26.455Z,3.50
2022-12-08T04:58:28.632Z,3.54
2022-12-08T05:01:31.016Z,3.63
2022-12-08T05:04:33.328Z,3.66
2022-12-08T05:07:35.581Z,3.77
2022-12-08T05:10:38.158Z,3.88
2022-12-08T05:13:40.703Z,3.81
2022-12-08T05:16:43.332Z,3.76
2022-12-08T05:19:45.628Z,3.77
2022-12-08T05:22:47.880Z,3.76
2022-12-08T05:25:50.117Z,3.76
2022-12-08T05:28:52.807Z,3.67
2022-12-08T05:31:55.194Z,3.70
2022-12-08T05:34:57.454Z,3.84
2022-12-08T05:37:59.720Z,3.90
2022-12-08T05:41:01.984Z,3.87
2022-12-08T05:44:04.298Z,3.90
2022-12-08T05:47:06.580Z,3.98
2022-12-08T05:50:08.996Z,3.95
2022-12-08T05:53:11.160Z,3.98
2022-12-08T05:56:13.532Z,4.07
2022-12-08T05:59:22.313Z,4.01
2022-12-08T06:02:24.721Z,4.04
2022-12-08T06:05:26.991Z,3.85
2022-12-08T06:08:29.430Z,3.73
2022-12-08T06:11:32.991Z,3.80
2022-12-08T06:14:35.467Z,3.84
2022-12-08T06:17:37.739Z,3.93
2022-12-08T06:20:40.011Z,3.84
2022-12-08T06:23:42.879Z,3.71
2022-12-08T06:26:46.018Z,3.66
2022-12-08T06:29:48.266Z,3.63
2022-12-08T06:32:50.496Z,3.56
2022-12-08T06:35:53.246Z,3.54
2022-12-08T06:38:56.022Z,3.49
2022-12-08T06:42:16.580Z,3.49
2022-12-08T06:45:19.046Z,3.44
2022-12-08T06:48:21.300Z,3.46
2022-12-08T06:51:23.615Z,3.49
2022-12-08T06:54:26.135Z,3.54
2022-12-08T06:57:28.677Z,3.59
2022-12-08T07:00:33.954Z,3.66
2022-12-08T07:03:37.663Z,3.69
2022-12-08T07:06:43.804Z,3.83
2022-12-08T07:09:49.217Z,3.67
2022-12-08T07:12:51.437Z,3.70
2022-12-08T07:15:53.707Z,3.77
2022-12-08T07:18:56.166Z,3.78
2022-12-08T07:21:58.598Z,3.93
2022-12-08T07:25:00.969Z,3.88
2022-12-08T07:28:08.567Z,3.93
2022-12-08T07:31:20.140Z,4.04
2022-12-08T07:34:22.497Z,4.12
2022-12-08T07:37:24.736Z,4.07
2022-12-08T07:40:26.974Z,4.05
2022-12-08T07:43:29.297Z,4.21
2022-12-08T07:46:31.655Z,4.52
2022-12-08T07:49:33.888Z,4.67
2022-12-08T07:52:39.718Z,4.49
2022-12-08T07:55:48.427Z,4.56
2022-12-08T07:58:51.270Z,4.63
2022-12-08T08:02:20.989Z,4.69
2022-12-08T08:05:18.453Z,4.94
2022-12-08T08:08:20.926Z,4.99
2022-12-08T08:11:26.297Z,4.87
2022-12-08T08:14:28.672Z,4.73
2022-12-08T08:17:32.165Z,4.72
2022-12-08T08:20:34.756Z,4.76
2022-12-08T08:23:37.217Z,4.93
2022-12-08T08:26:39.666Z,5.06
2022-12-08T08:29:41.962Z,5.11
2022-12-08T08:32:44.348Z,5.06
2022-12-08T08:35:46.730Z,5.06
2022-12-08T08:38:51.684Z,4.94
2022-12-08T08:41:53.943Z,5.00
2022-12-08T08:44:56.307Z,5.04
2022-12-08T08:47:58.994Z,5.10
2022-12-08T08:51:12.748Z,5.17
2022-12-08T08:54:15.362Z,5.27
2022-12-08T08:57:25.705Z,5.41
2022-12-08T09:00:32.283Z,5.41
2022-12-08T09:03:35.665Z,5.49
2022-12-08T09:06:38.298Z,5.47
2022-12-08T09:09:41.004Z,5.41
2022-12-08T09:12:43.355Z,5.49
2022-12-08T09:15:48.655Z,5.49
2022-12-08T09:18:51.133Z,5.42
2022-12-08T09:21:53.452Z,5.44
2022-12-08T09:24:55.875Z,5.51
2022-12-08T09:27:58.346Z,5.61
2022-12-08T09:31:01.399Z,5.71
2022-12-08T09:34:04.567Z,5.82
2022-12-08T09:37:06.904Z,6.07
2022-12-08T09:40:15.891Z,5.85
2022-12-08T09:43:36.424Z,5.85
2022-12-08T09:46:39.528Z,5.99
2022-12-08T09:49:47.177Z,6.16
2022-12-08T09:53:19.624Z,6.33
2022-12-08T09:56:30.062Z,6.36
2022-12-08T09:59:35.626Z,6.64
2022-12-08T10:02:37.868Z,6.87
2022-12-08T10:05:47.598Z,7.15
2022-12-08T10:09:22.936Z,7.03
2022-12-08T10:12:41.675Z,6.88
2022-12-08T10:16:06.950Z,6.78
2022-12-08T10:19:22.619Z,6.85
2022-12-08T10:22:27.385Z,6.60
2022-12-08T10:25:36.614Z,6.72
2022-12-08T10:28:44.444Z,6.81
2022-12-08T10:31:47.668Z,7.23
2022-12-08T10:35:20.923Z,7.42
2022-12-08T10:38:29.491Z,7.60
2022-12-08T10:41:31.695Z,7.87
2022-12-08T10:44:40.297Z,7.56
2022-12-08T10:47:56.902Z,7.32
2022-12-08T10:50:59.989Z,7.19
2022-12-08T10:54:03.343Z,7.15
2022-12-08T10:57:05.868Z,7.05
2022-12-08T11:00:14.350Z,6.87
2022-12-08T11:03:25.801Z,6.88
2022-12-08T11:06:32.568Z,6.94
2022-12-08T11:09:48.677Z,6.85
2022-12-08T11:12:51.398Z,6.75
2022-12-08T11:15:58.423Z,6.61
2022-12-08T11:19:07.355Z,6.63
2022-12-08T11:22:25.740Z,6.61
2022-12-08T11:25:28.245Z,6.67
2022-12-08T11:28:35.340Z,6.70
2022-12-08T11:31:46.749Z,6.78
2022-12-08T11:34:55.546Z,6.68
2022-12-08T11:38:21.473Z,6.72
2022-12-08T11:41:28.965Z,6.75
2022-12-08T11:44:47.167Z,6.77
2022-12-08T11:48:09.670Z,6.95
2022-12-08T11:51:32.743Z,6.92
2022-12-08T11:54:44.687Z,6.82
2022-12-08T11:57:48.803Z,6.80
2022-12-08T12:00:51.134Z,6.85
2022-12-08T12:04:22.514Z,6.99
2022-12-08T12:07:54.444Z,7.16
2022-12-08T12:11:02.596Z,7.40
2022-12-08T12:14:21.764Z,7.56
2022-12-08T12:17:23.947Z,7.77
2022-12-08T12:20:38.016Z,7.81
2022-12-08T12:23:40.189Z,7.98
2022-12-08T12:26:56.987Z,8.01
2022-12-08T12:30:02.983Z,7.88
2022-12-08T12:33:08.734Z,7.66
2022-12-08T12:36:11.707Z,7.81
2022-12-08T12:39:15.457Z,7.83
2022-12-08T12:42:48.612Z,7.97
2022-12-08T12:45:50.999Z,7.88
2022-12-08T12:49:25.746Z,7.70
2022-12-08T12:52:33.888Z,7.56
2022-12-08T12:56:10.146Z,7.53
2022-12-08T12:59:46.163Z,7.52
2022-12-08T13:02:53.234Z,7.52
2022-12-08T13:05:55.582Z,7.43
2022-12-08T13:08:58.955Z,7.42
2022-12-08T13:12:10.494Z,7.12
2022-12-08T13:15:20.423Z,7.11
2022-12-08T13:18:36.407Z,6.96
2022-12-08T13:21:39.440Z,6.81
2022-12-08T13:24:43.259Z,6.80
2022-12-08T13:27:53.704Z,6.77
2022-12-08T13:31:05.173Z,6.70
2022-12-08T13:34:11.097Z,6.84
2022-12-08T13:37:16.171Z,6.80
2022-12-08T13:40:32.045Z,6.81
2022-12-08T13:43:55.565Z,6.78
2022-12-08T13:47:41.449Z,6.71
2022-12-08T13:52:33.035Z,6.67
2022-12-08T13:55:01.851Z,6.61
2022-12-08T13:57:36.711Z,6.57
2022-12-08T14:00:42.002Z,6.57
2022-12-08T14:04:34.252Z,6.51
2022-12-08T14:07:24.794Z,6.48
2022-12-08T14:10:30.509Z,6.54
2022-12-08T14:13:34.403Z,6.41
2022-12-08T14:16:43.741Z,6.43
2022-12-08T14:20:14.107Z,6.34
2022-12-08T14:23:17.620Z,6.33
2022-12-08T14:26:19.810Z,6.33
2022-12-08T14:29:35.937Z,6.34
2022-12-08T14:32:49.577Z,6.29
2022-12-08T14:35:54.902Z,6.20
2022-12-08T14:38:57.563Z,6.14
2022-12-08T14:42:01.032Z,6.09
2022-12-08T14:45:11.511Z,6.03
2022-12-08T14:48:25.968Z,5.95
2022-12-08T14:51:32.881Z,5.92
2022-12-08T14:54:35.615Z,5.85
2022-12-08T14:57:37.839Z,5.76
2022-12-08T15:00:47.266Z,5.66
2022-12-08T15:03:51.392Z,5.59
2022-12-08T15:07:05.752Z,5.48
2022-12-08T15:10:16.705Z,5.51
2022-12-08T15:13:19.555Z,5.48
2022-12-08T15:16:39.613Z,5.49
2022-12-08T15:19:44.252Z,5.51
2022-12-08T15:22:46.499Z,5.47
2022-12-08T15:25:49.602Z,5.51
2022-12-08T15:28:52.177Z,5.54
2022-12-08T15:31:58.811Z,5.51
2022-12-08T15:35:01.145Z,5.44
2022-12-08T15:38:03.558Z,5.59
2022-12-08T15:41:09.051Z,5.51
2022-12-08T15:44:15.328Z,5.56
2022-12-08T15:47:22.773Z,5.41
2022-12-08T15:50:25.066Z,5.52
2022-12-08T15:53:27.273Z,5.61
2022-12-08T15:56:29.606Z,5.80
2022-12-08T15:59:32.119Z,5.80
2022-12-08T16:02:56.257Z,5.72
2022-12-08T16:06:39.062Z,5.90
2022-12-08T16:09:34.265Z,5.88
2022-12-08T16:13:55.128Z,5.89
2022-12-08T16:16:21.609Z,5.82
2022-12-08T16:19:31.443Z,5.56
2022-12-08T16:29:20.434Z,5.72
2022-12-08T16:32:23.086Z,5.69
2022-12-08T16:35:25.348Z,5.62
2022-12-08T16:38:27.701Z,5.52
2022-12-08T16:41:54.369Z,5.52
2022-12-08T16:44:56.556Z,5.54
2022-12-08T16:48:00.531Z,5.54
2022-12-08T16:51:04.602Z,5.55
2022-12-08T16:54:06.872Z,5.42
2022-12-08T16:57:09.271Z,5.27
2022-12-08T17:00:14.514Z,5.24
2022-12-08T17:03:17.499Z,5.10
2022-12-08T17:06:20.050Z,4.94
2022-12-08T17:09:22.239Z,4.90
2022-12-08T17:12:24.564Z,4.76
2022-12-08T17:15:26.806Z,4.73
2022-12-08T17:18:35.231Z,4.63
2022-12-08T17:21:37.515Z,4.53
2022-12-08T17:24:39.755Z,4.56
2022-12-08T17:27:42.260Z,4.56
2022-12-08T17:30:44.455Z,4.67
2022-12-08T17:33:46.828Z,4.72
2022-12-08T17:36:49.133Z,4.84
2022-12-08T17:39:51.388Z,4.96
2022-12-08T17:42:53.645Z,5.00
2022-12-08T17:45:56.373Z,5.06
2022-12-08T17:48:58.704Z,5.07
2022-12-08T17:52:03.519Z,5.26
2022-12-08T17:55:06.263Z,5.14
2022-12-08T17:58:08.749Z,5.27
2022-12-08T18:01:11.663Z,5.31
2022-12-08T18:04:13.931Z,5.24
2022-12-08T18:07:16.147Z,5.03
2022-12-08T18:10:19.558Z,4.97
2022-12-08T18:13:21.911Z,4.91
2022-12-08T18:16:26.480Z,4.86
2022-12-08T18:19:28.791Z,4.81
2022-12-08T18:22:31.249Z,4.83
2022-12-08T18:25:33.579Z,4.79
2022-12-08T18:28:37.156Z,4.83
2022-12-08T18:31:39.403Z,4.83
2022-12-08T18:34:41.652Z,4.76
2022-12-08T18:37:43.917Z,4.86
2022-12-08T18:40:46.169Z,5.11
2022-12-08T18:43:48.417Z,5.06
2022-12-08T18:46:50.769Z,5.17
2022-12-08T18:49:53.045Z,5.03
2022-12-08T18:52:55.325Z,5.14
2022-12-08T18:55:57.600Z,5.23
2022-12-08T18:59:04.022Z,5.32
2022-12-08T19:02:06.586Z,5.35
2022-12-08T19:05:10.800Z,5.35
2022-12-08T19:08:13.089Z,5.24
2022-12-08T19:11:20.653Z,5.31
2022-12-08T19:14:27.820Z,5.34
2022-12-08T19:17:30.874Z,5.35
2022-12-08T19:20:33.211Z,5.42
2022-12-08T19:23:35.572Z,5.41
2022-12-08T19:26:38.725Z,5.40
2022-12-08T19:29:40.963Z,5.23
2022-12-08T19:32:43.236Z,5.40
2022-12-08T19:35:52.236Z,5.48
2022-12-08T19:39:15.303Z,5.47
2022-12-08T19:42:38.417Z,5.68
2022-12-08T19:45:40.783Z,5.62
2022-12-08T19:48:43.619Z,5.44
2022-12-08T19:51:45.924Z,5.54
2022-12-08T19:54:48.148Z,5.65
2022-12-08T19:57:51.671Z,5.63
2022-12-08T20:00:53.955Z,5.71
2022-12-08T20:03:56.255Z,5.71
2022-12-08T20:06:58.595Z,5.73
2022-12-08T20:10:00.931Z,5.73
2022-12-08T20:13:22.876Z,5.78
2022-12-08T20:16:25.456Z,5.63
2022-12-08T20:19:27.719Z,5.68
2022-12-08T20:22:29.976Z,5.62
2022-12-08T20:25:32.572Z,5.68
2022-12-08T20:28:35.762Z,5.62
2022-12-08T20:31:38.356Z,5.66
2022-12-08T20:34:40.660Z,5.58
2022-12-08T20:37:43.137Z,5.52
2022-12-08T20:40:52.131Z,5.61
2022-12-08T20:43:54.569Z,5.58
2022-12-08T20:46:56.950Z,5.62
2022-12-08T20:49:59.326Z,5.56
2022-12-08T20:53:01.608Z,5.62
2022-12-08T20:56:03.952Z,5.66
2022-12-08T20:59:06.401Z,5.63
2022-12-08T21:02:10.643Z,5.61
2022-12-08T21:05:13.240Z,5.52
2022-12-08T21:08:15.643Z,5.65
2022-12-08T21:11:18.148Z,5.68
2022-12-08T21:14:20.561Z,5.65
2022-12-08T21:17:22.989Z,5.63
2022-12-08T21:20:25.439Z,5.71
2022-12-08T21:23:27.816Z,5.66
2022-12-08T21:26:30.643Z,5.58
2022-12-08T21:29:32.859Z,5.62
2022-12-08T21:32:35.314Z,5.63
2022-12-08T21:35:37.930Z,5.55
2022-12-08T21:38:40.872Z,5.51
2022-12-08T21:42:01.610Z,5.58
2022-12-08T21:45:04.264Z,5.68
2022-12-08T21:48:11.406Z,5.54
2022-12-08T21:51:14.221Z,5.42
2022-12-08T21:54:18.986Z,5.49
2022-12-08T21:57:21.874Z,5.48
2022-12-08T22:00:24.749Z,5.42
2022-12-08T22:03:28.491Z,5.44
2022-12-08T22:06:31.039Z,5.47
2022-12-08T22:09:33.418Z,5.44
2022-12-08T22:12:36.868Z,5.40
2022-12-08T22:15:42.213Z,5.40
2022-12-08T22:18:44.570Z,5.44
2022-12-08T22:21:47.301Z,5.38
2022-12-08T22:24:49.495Z,5.35
2022-12-08T22:27:51.658Z,5.34
2022-12-08T22:30:54.814Z,5.45
2022-12-08T22:33:59.134Z,5.42
2022-12-08T22:37:01.541Z,5.44
2022-12-08T22:40:04.966Z,5.55
2022-12-08T22:43:07.422Z,5.51
2022-12-08T22:46:19.942Z,5.44
2022-12-08T22:49:24.746Z,5.42
2022-12-08T22:52:26.986Z,5.34
2022-12-08T22:55:29.403Z,5.32
2022-12-08T22:58:31.661Z,5.23
2022-12-08T23:01:34.557Z,5.17
2022-12-08T23:04:37.199Z,5.26
2022-12-08T23:07:39.736Z,5.40
2022-12-08T23:10:43.264Z,5.31
2022-12-08T23:13:45.796Z,5.34
2022-12-08T23:16:48.177Z,5.41
2022-12-08T23:19:50.948Z,5.37
2022-12-08T23:22:53.392Z,5.40
2022-12-08T23:25:55.629Z,5.49
2022-12-08T23:28:58.599Z,5.28
2022-12-08T23:32:01.138Z,5.28
2022-12-08T23:35:04.485Z,5.10
2022-12-08T23:38:06.779Z,5.08
2022-12-08T23:41:11.503Z,5.30
2022-12-08T23:44:13.954Z,5.47
2022-12-08T23:47:16.455Z,5.40
2022-12-08T23:50:19.162Z,5.31
2022-12-08T23:53:21.647Z,5.44
2022-12-08T23:56:29.883Z,5.58
2022-12-08T23:59:32.791Z,5.48
